Western King — CY7367 — position and weather

sailwx.info

Track history (hours):
 
Tides and Currents Weather Stations Pressure Air Temp Water Temp Dewpoint Dewpoint Depression Visibility Wind Speed Wind Dir Waves Ship Positions

Western King

Last reported at 2014-Aug-19 09:12 UTC. Time now 2014-Aug-20 12:44 UTC.
Position N 49°53' W 124°59'.

Length 23 m; draft 3.8 m.

Type: Fishing. MMSI: 316003779.

Date/timePositionNaut miles runAvg speedWind from/ knotsBaromVisibWave heightAir tempDewpointWater temp
2014-Aug-19 09:12N 49°53' W 124°59'8 9.1
2014-Aug-19 08:17N 49°48' W 124°49'8 8.8
2014-Aug-19 07:23N 49°43' W 124°39'10 8.6
2014-Aug-19 06:12N 49°37' W 124°27'6 9.2
2014-Aug-19 05:30N 49°33' W 124°18'10 9.0
2014-Aug-19 04:21N 49°27' W 124°05'8 8.6
2014-Aug-19 03:27N 49°23' W 123°55'8 8.9
2014-Aug-19 02:31N 49°18' W 123°45'8 8.4
2014-Aug-19 01:33N 49°14' W 123°35'9 8.7
2014-Aug-19 00:33N 49°09' W 123°24'8 8.3
2014-Aug-18 23:33N 49°07' W 123°11'0 0.0
2014-Aug-18 22:33N 49°07' W 123°11'1 1.0
2014-Aug-18 21:33N 49°07' W 123°10'6 1.5
2014-Aug-18 17:33N 49°12' W 123°06'0 0.0
2014-Aug-18 16:33N 49°12' W 123°06'0 0.0
2014-Aug-18 15:33N 49°12' W 123°06'3 2.7
2014-Aug-18 14:33N 49°13' W 123°10'7 7.5
2014-Aug-18 13:33N 49°16' W 123°20'9 9.2
2014-Aug-18 12:33N 49°20' W 123°33'28 8.9
2014-Aug-18 09:26N 49°31' W 124°12'8 9.0
2014-Aug-18 08:30N 49°34' W 124°24'10 9.1
2014-Aug-18 07:27N 49°40' W 124°36'  
2014-Aug-15 04:09N 49°41' W 124°36'26 9.8
2014-Aug-15 01:33N 49°27' W 124°04'2110.3
2014-Aug-14 23:33N 49°15' W 123°38'9 9.5
2014-Aug-14 22:34N 49°10' W 123°26'9 8.9
2014-Aug-14 21:33N 49°08' W 123°13'2 1.9
2014-Aug-14 20:33N 49°07' W 123°10'0 0.0
2014-Aug-14 19:33N 49°07' W 123°10'5 4.9
2014-Aug-14 18:33N 49°07' W 123°17'9 8.8
2014-Aug-14 17:33N 49°15' W 123°17'8 7.9
2014-Aug-14 16:33N 49°12' W 123°06'0 0.0
2014-Aug-14 15:33N 49°12' W 123°06'0 0.0
2014-Aug-14 14:33N 49°12' W 123°06'0 0.0
2014-Aug-14 13:33N 49°12' W 123°06'0 0.0
2014-Aug-14 12:33N 49°12' W 123°06'0 0.0
2014-Aug-14 11:33N 49°12' W 123°06'0 0.0
2014-Aug-14 10:33N 49°12' W 123°06'0 0.0
2014-Aug-14 09:33N 49°12' W 123°06'0 0.0
2014-Aug-14 08:33N 49°12' W 123°06'0 0.0
2014-Aug-14 07:33N 49°12' W 123°06'0 0.0
2014-Aug-14 06:33N 49°12' W 123°06'0 0.0
2014-Aug-14 05:33N 49°12' W 123°06'0 0.0
2014-Aug-14 04:33N 49°12' W 123°06'0 0.0
2014-Aug-14 03:33N 49°12' W 123°06'0 0.0
2014-Aug-14 02:33N 49°12' W 123°06'0 0.0
2014-Aug-14 01:33N 49°12' W 123°06'0 0.0
2014-Aug-14 00:33N 49°12' W 123°06'5 4.7
2014-Aug-13 23:33N 49°13' W 123°13'8 7.7
2014-Aug-13 22:34N 49°17' W 123°23'8 8.1
2014-Aug-13 21:33N 49°20' W 123°34'18 7.9
2014-Aug-13 19:17N 49°27' W 124°00'14 8.2
2014-Aug-13 17:33N 49°34' W 124°20'10 8.1
2014-Aug-13 16:17N 49°39' W 124°33'  
Track history (hours):
 
Tides and Currents Weather Stations Pressure Air Temp Water Temp Dewpoint Dewpoint Depression Visibility Wind Speed Wind Dir Waves Ship Positions

Western King

Last reported at 2014-Aug-19 09:12 UTC. Time now 2014-Aug-20 12:44 UTC.
Position N 49°53' W 124°59'.

Length 23 m; draft 3.8 m.

Type: Fishing. MMSI: 316003779.

Date/timePositionNaut miles runAvg speedWind from/ knotsBaromVisibWave heightAir tempDewpointWater temp
2014-Aug-19 09:12N 49°53' W 124°59'8 9.1
2014-Aug-19 08:17N 49°48' W 124°49'8 8.8
2014-Aug-19 07:23N 49°43' W 124°39'10 8.6
2014-Aug-19 06:12N 49°37' W 124°27'6 9.2
2014-Aug-19 05:30N 49°33' W 124°18'10 9.0
2014-Aug-19 04:21N 49°27' W 124°05'8 8.6
2014-Aug-19 03:27N 49°23' W 123°55'8 8.9
2014-Aug-19 02:31N 49°18' W 123°45'8 8.4
2014-Aug-19 01:33N 49°14' W 123°35'9 8.7
2014-Aug-19 00:33N 49°09' W 123°24'8 8.3
2014-Aug-18 23:33N 49°07' W 123°11'0 0.0
2014-Aug-18 22:33N 49°07' W 123°11'1 1.0
2014-Aug-18 21:33N 49°07' W 123°10'6 1.5
2014-Aug-18 17:33N 49°12' W 123°06'0 0.0
2014-Aug-18 16:33N 49°12' W 123°06'0 0.0
2014-Aug-18 15:33N 49°12' W 123°06'3 2.7
2014-Aug-18 14:33N 49°13' W 123°10'7 7.5
2014-Aug-18 13:33N 49°16' W 123°20'9 9.2
2014-Aug-18 12:33N 49°20' W 123°33'28 8.9
2014-Aug-18 09:26N 49°31' W 124°12'8 9.0
2014-Aug-18 08:30N 49°34' W 124°24'10 9.1
2014-Aug-18 07:27N 49°40' W 124°36'  
2014-Aug-15 04:09N 49°41' W 124°36'26 9.8
2014-Aug-15 01:33N 49°27' W 124°04'2110.3
2014-Aug-14 23:33N 49°15' W 123°38'9 9.5
2014-Aug-14 22:34N 49°10' W 123°26'9 8.9
2014-Aug-14 21:33N 49°08' W 123°13'2 1.9
2014-Aug-14 20:33N 49°07' W 123°10'0 0.0
2014-Aug-14 19:33N 49°07' W 123°10'5 4.9
2014-Aug-14 18:33N 49°07' W 123°17'9 8.8
2014-Aug-14 17:33N 49°15' W 123°17'8 7.9
2014-Aug-14 16:33N 49°12' W 123°06'0 0.0
2014-Aug-14 15:33N 49°12' W 123°06'0 0.0
2014-Aug-14 14:33N 49°12' W 123°06'0 0.0
2014-Aug-14 13:33N 49°12' W 123°06'0 0.0
2014-Aug-14 12:33N 49°12' W 123°06'0 0.0
2014-Aug-14 11:33N 49°12' W 123°06'0 0.0
2014-Aug-14 10:33N 49°12' W 123°06'0 0.0
2014-Aug-14 09:33N 49°12' W 123°06'0 0.0
2014-Aug-14 08:33N 49°12' W 123°06'0 0.0
2014-Aug-14 07:33N 49°12' W 123°06'0 0.0
2014-Aug-14 06:33N 49°12' W 123°06'0 0.0
2014-Aug-14 05:33N 49°12' W 123°06'0 0.0
2014-Aug-14 04:33N 49°12' W 123°06'0 0.0
2014-Aug-14 03:33N 49°12' W 123°06'0 0.0
2014-Aug-14 02:33N 49°12' W 123°06'0 0.0
2014-Aug-14 01:33N 49°12' W 123°06'0 0.0
2014-Aug-14 00:33N 49°12' W 123°06'5 4.7
2014-Aug-13 23:33N 49°13' W 123°13'8 7.7
2014-Aug-13 22:34N 49°17' W 123°23'8 8.1
2014-Aug-13 21:33N 49°20' W 123°34'18 7.9
2014-Aug-13 19:17N 49°27' W 124°00'14 8.2
2014-Aug-13 17:33N 49°34' W 124°20'10 8.1
2014-Aug-13 16:17N 49°39' W 124°33'  

Dump ship's entire track history